Time;durP1;ratioP1;P1;durP2;ratioP2;P2;SDS_P1;SDS_P2;PMS_P1;PMS_P2;Temp;Humidity;BMP_temperature;BMP_pressure;BME280_temperature;BME280_humidity;BME280_pressure;Samples;Min_cycle;Max_cycle;Signal;HPM_P1;HPM_P2
2023/09/02 00:00:15;;;;;;;;;;;19.30;90.60;;;;;;5056146;28;20557;-76
2023/09/02 00:02:42;;;;;;;;;;;19.30;90.70;;;;;;5060652;28;19983;-76
2023/09/02 00:05:10;;;;;;;;;;;19.30;90.70;;;;;;5060510;28;20485;-77
2023/09/02 00:07:37;;;;;;;;;;;19.30;90.70;;;;;;5061391;28;19986;-77
2023/09/02 00:10:04;;;;;;;;;;;19.30;90.70;;;;;;5060859;28;19986;-77
2023/09/02 00:12:30;;;;;;;;;;;19.20;90.70;;;;;;5058137;28;20077;-76
2023/09/02 00:14:57;;;;;;;;;;;19.30;90.80;;;;;;5062785;28;19976;-76
2023/09/02 00:17:24;;;;;;;;;;;19.20;90.80;;;;;;5061152;28;20023;-75
2023/09/02 00:19:50;;;;;;;;;;;19.20;90.80;;;;;;5062503;28;19987;-76
2023/09/02 00:22:18;;;;;;;;;;;19.20;90.80;;;;;;5057551;28;20002;-76
2023/09/02 00:24:45;;;;;;;;;;;19.20;90.80;;;;;;5058800;28;19980;-76
2023/09/02 00:27:12;;;;;;;;;;;19.20;90.80;;;;;;5064711;28;19990;-77
2023/09/02 00:29:38;;;;;;;;;;;19.20;90.80;;;;;;5059960;28;19979;-76
2023/09/02 00:32:05;;;;;;;;;;;19.20;90.90;;;;;;5055059;28;19995;-76
2023/09/02 00:34:31;;;;;;;;;;;19.10;90.80;;;;;;5061061;28;19986;-77
2023/09/02 00:36:58;;;;;;;;;;;19.20;90.90;;;;;;5062021;28;19980;-76
2023/09/02 00:39:26;;;;;;;;;;;19.10;90.90;;;;;;5059404;28;20041;-76
2023/09/02 00:41:54;;;;;;;;;;;19.10;90.90;;;;;;5056244;28;20002;-77
2023/09/02 00:44:20;;;;;;;;;;;19.10;90.90;;;;;;5058482;28;20497;-77
2023/09/02 00:46:47;;;;;;;;;;;19.10;90.90;;;;;;5056777;28;20014;-77
2023/09/02 00:49:14;;;;;;;;;;;19.10;90.90;;;;;;5059116;28;19975;-77
2023/09/02 00:51:40;;;;;;;;;;;19.10;90.90;;;;;;5062458;28;19996;-76
2023/09/02 00:54:07;;;;;;;;;;;19.10;90.90;;;;;;5063132;28;19996;-77
2023/09/02 00:56:36;;;;;;;;;;;19.00;90.90;;;;;;5062791;28;19983;-77
2023/09/02 00:59:04;;;;;;;;;;;19.00;90.90;;;;;;5060963;28;19976;-77
2023/09/02 01:01:33;;;;;;;;;;;19.00;91.00;;;;;;5056805;28;20003;-77
2023/09/02 01:04:00;;;;;;;;;;;19.00;91.00;;;;;;5058459;28;19976;-77
2023/09/02 01:06:27;;;;;;;;;;;18.90;91.00;;;;;;5060622;28;20373;-76
2023/09/02 01:08:53;;;;;;;;;;;18.90;91.00;;;;;;5060245;28;19979;-77
2023/09/02 01:11:20;;;;;;;;;;;19.00;91.00;;;;;;5060301;28;20042;-77
2023/09/02 01:13:48;;;;;;;;;;;18.90;91.00;;;;;;5061059;28;20010;-77
2023/09/02 01:16:15;;;;;;;;;;;18.90;91.00;;;;;;5063770;28;20002;-77
2023/09/02 01:18:41;;;;;;;;;;;18.90;91.00;;;;;;5060296;28;19984;-77
2023/09/02 01:21:13;;;;;;;;;;;18.90;91.00;;;;;;5063065;28;20007;-77
2023/09/02 01:23:52;;;;;;;;;;;18.90;91.10;;;;;;5065480;28;19997;-77
2023/09/02 01:26:27;;;;;;;;;;;18.90;91.10;;;;;;5067859;28;19979;-77
2023/09/02 01:29:00;;;;;;;;;;;18.80;91.00;;;;;;5058733;28;20056;-77
2023/09/02 01:31:27;;;;;;;;;;;18.80;91.00;;;;;;5063604;28;20152;-76
2023/09/02 01:33:54;;;;;;;;;;;18.80;91.10;;;;;;5061673;28;19995;-77
2023/09/02 01:36:22;;;;;;;;;;;18.80;91.10;;;;;;5060993;28;19983;-77
2023/09/02 01:41:56;;;;;;;;;;;18.80;91.10;;;;;;5064060;28;19994;-77
2023/09/02 01:44:25;;;;;;;;;;;18.80;91.10;;;;;;5051826;28;19982;-78
2023/09/02 01:46:52;;;;;;;;;;;18.80;91.10;;;;;;5061112;28;20006;-77
2023/09/02 01:49:18;;;;;;;;;;;18.70;91.10;;;;;;5067958;28;20064;-76
2023/09/02 01:51:45;;;;;;;;;;;18.70;91.20;;;;;;5062827;28;19991;-77
2023/09/02 01:54:12;;;;;;;;;;;18.70;91.20;;;;;;5066655;28;19999;-77
2023/09/02 01:56:38;;;;;;;;;;;18.70;91.20;;;;;;5068608;28;20339;-76
2023/09/02 01:59:05;;;;;;;;;;;18.70;91.20;;;;;;5062745;28;19980;-77
2023/09/02 02:01:34;;;;;;;;;;;18.60;91.20;;;;;;5059259;28;20007;-77
2023/09/02 02:04:04;;;;;;;;;;;18.60;91.20;;;;;;5055627;28;20006;-77
2023/09/02 02:06:32;;;;;;;;;;;18.60;91.20;;;;;;5060761;28;19983;-76
2023/09/02 02:09:02;;;;;;;;;;;18.60;91.30;;;;;;5055843;28;20486;-77
2023/09/02 02:11:31;;;;;;;;;;;18.60;91.30;;;;;;5062986;28;20042;-76
2023/09/02 02:14:00;;;;;;;;;;;18.60;91.30;;;;;;5061587;28;20199;-77
2023/09/02 02:16:27;;;;;;;;;;;18.60;91.30;;;;;;5065944;28;19995;-77
2023/09/02 02:18:55;;;;;;;;;;;18.60;91.30;;;;;;5064583;28;19983;-77
2023/09/02 02:21:21;;;;;;;;;;;18.60;91.40;;;;;;5063884;28;20006;-77
2023/09/02 02:23:48;;;;;;;;;;;18.60;91.40;;;;;;5064562;28;19979;-77
2023/09/02 02:26:15;;;;;;;;;;;18.60;91.40;;;;;;5065224;28;19983;-77
2023/09/02 02:28:42;;;;;;;;;;;18.60;91.40;;;;;;5062322;28;20415;-77
2023/09/02 02:31:09;;;;;;;;;;;18.50;91.40;;;;;;5057365;28;19992;-77
2023/09/02 02:33:36;;;;;;;;;;;18.50;91.40;;;;;;5063753;28;20485;-77
2023/09/02 02:36:04;;;;;;;;;;;18.50;91.80;;;;;;5062675;28;20028;-76
2023/09/02 02:38:31;;;;;;;;;;;18.50;91.50;;;;;;5060652;28;19984;-77
2023/09/02 02:40:57;;;;;;;;;;;18.50;91.50;;;;;;5063658;28;19998;-77
2023/09/02 02:43:26;;;;;;;;;;;18.40;91.50;;;;;;5049937;28;19983;-76
2023/09/02 02:45:52;;;;;;;;;;;18.40;91.50;;;;;;5046633;28;20002;-76
2023/09/02 02:48:19;;;;;;;;;;;18.40;91.50;;;;;;5049642;28;20301;-76
2023/09/02 02:50:46;;;;;;;;;;;18.40;91.50;;;;;;5048958;28;19992;-78
2023/09/02 02:53:14;;;;;;;;;;;18.40;91.50;;;;;;5049168;28;19999;-77
2023/09/02 02:55:41;;;;;;;;;;;18.40;91.50;;;;;;5050183;28;19986;-77
2023/09/02 02:58:08;;;;;;;;;;;18.40;91.60;;;;;;5048644;28;20354;-76
2023/09/02 03:00:35;;;;;;;;;;;18.40;91.60;;;;;;5044702;28;19995;-77
2023/09/02 03:03:03;;;;;;;;;;;18.40;91.60;;;;;;5047738;28;19975;-77
2023/09/02 03:05:29;;;;;;;;;;;18.30;91.60;;;;;;5048791;28;19976;-76
2023/09/02 03:07:56;;;;;;;;;;;18.40;91.60;;;;;;5047953;28;19980;-77
2023/09/02 03:10:24;;;;;;;;;;;18.30;91.60;;;;;;5047358;28;19991;-77
2023/09/02 03:12:50;;;;;;;;;;;18.30;91.60;;;;;;5047340;28;20398;-74
2023/09/02 03:15:17;;;;;;;;;;;18.30;91.60;;;;;;5048282;28;20028;-77
2023/09/02 03:17:43;;;;;;;;;;;18.30;91.70;;;;;;5047979;28;19990;-76
2023/09/02 03:20:10;;;;;;;;;;;18.30;91.70;;;;;;5048374;28;20006;-77
2023/09/02 03:22:40;;;;;;;;;;;18.30;91.70;;;;;;5048555;28;19976;-76
2023/09/02 03:25:07;;;;;;;;;;;18.30;91.70;;;;;;5048689;28;19979;-76
2023/09/02 03:27:37;;;;;;;;;;;18.30;91.70;;;;;;5046190;28;19975;-74
2023/09/02 03:30:04;;;;;;;;;;;18.30;91.70;;;;;;5048798;28;19980;-76
2023/09/02 03:32:31;;;;;;;;;;;18.20;91.70;;;;;;5048252;28;20454;-77
2023/09/02 03:34:57;;;;;;;;;;;18.20;91.70;;;;;;5047923;28;20006;-77
2023/09/02 03:37:24;;;;;;;;;;;18.20;91.80;;;;;;5048641;28;19986;-76
2023/09/02 03:39:51;;;;;;;;;;;18.20;91.80;;;;;;5048434;28;19975;-78
2023/09/02 03:42:17;;;;;;;;;;;18.20;91.80;;;;;;5046643;28;20118;-77
2023/09/02 03:44:45;;;;;;;;;;;18.20;91.80;;;;;;5065152;28;19975;-77
2023/09/02 03:47:12;;;;;;;;;;;18.20;91.80;;;;;;5062244;28;19996;-76
2023/09/02 03:49:38;;;;;;;;;;;18.20;91.80;;;;;;5055378;28;19995;-77
2023/09/02 03:52:07;;;;;;;;;;;18.20;91.80;;;;;;5059072;28;19995;-76
2023/09/02 03:54:34;;;;;;;;;;;18.20;91.80;;;;;;5060630;28;19992;-77
2023/09/02 03:57:02;;;;;;;;;;;18.20;91.80;;;;;;5059415;28;19975;-76
2023/09/02 03:59:28;;;;;;;;;;;18.20;91.80;;;;;;5056575;28;19976;-76
2023/09/02 04:01:56;;;;;;;;;;;18.20;91.80;;;;;;5059166;28;20030;-76
2023/09/02 04:04:25;;;;;;;;;;;18.20;91.80;;;;;;5057536;28;20443;-77
2023/09/02 04:06:52;;;;;;;;;;;18.20;91.80;;;;;;5058967;28;20454;-76
2023/09/02 04:09:18;;;;;;;;;;;18.20;91.90;;;;;;5064329;28;20053;-75
2023/09/02 04:11:45;;;;;;;;;;;18.10;91.80;;;;;;5065238;28;19991;-77
2023/09/02 04:14:11;;;;;;;;;;;18.20;91.90;;;;;;5061557;28;20000;-76
2023/09/02 04:16:39;;;;;;;;;;;18.10;91.90;;;;;;5056909;28;19998;-77
2023/09/02 04:19:07;;;;;;;;;;;18.10;91.90;;;;;;5059189;28;20344;-76
2023/09/02 04:21:33;;;;;;;;;;;18.10;91.90;;;;;;5062183;28;20570;-77
2023/09/02 04:24:00;;;;;;;;;;;18.10;91.90;;;;;;5059730;28;19976;-76
2023/09/02 04:26:27;;;;;;;;;;;18.10;91.90;;;;;;5060068;28;20509;-76
2023/09/02 04:28:55;;;;;;;;;;;18.10;91.90;;;;;;5062768;28;19976;-76
2023/09/02 04:31:22;;;;;;;;;;;18.10;91.90;;;;;;5057868;28;20003;-77
2023/09/02 04:33:48;;;;;;;;;;;18.10;91.90;;;;;;5063159;28;19995;-77
2023/09/02 04:36:16;;;;;;;;;;;18.10;91.90;;;;;;5062748;28;20663;-77
2023/09/02 04:38:43;;;;;;;;;;;18.10;92.00;;;;;;5064454;28;19982;-77
2023/09/02 04:41:09;;;;;;;;;;;18.10;92.00;;;;;;5065961;28;19996;-76
2023/09/02 04:43:36;;;;;;;;;;;18.10;92.00;;;;;;5058280;28;19980;-78
2023/09/02 04:46:03;;;;;;;;;;;18.10;92.00;;;;;;5057406;28;20003;-77
2023/09/02 04:48:30;;;;;;;;;;;18.10;92.00;;;;;;5066963;28;20435;-77
2023/09/02 04:50:56;;;;;;;;;;;18.10;92.10;;;;;;5062838;28;19991;-78
2023/09/02 04:53:24;;;;;;;;;;;18.00;92.00;;;;;;5066278;28;19979;-77
2023/09/02 04:55:51;;;;;;;;;;;18.10;92.10;;;;;;5066915;28;19979;-78
2023/09/02 04:58:18;;;;;;;;;;;18.00;92.10;;;;;;5066843;28;20034;-77
2023/09/02 05:00:45;;;;;;;;;;;18.00;92.10;;;;;;5063395;28;20003;-77
2023/09/02 05:03:11;;;;;;;;;;;18.00;92.10;;;;;;5066264;28;19980;-78
2023/09/02 05:05:38;;;;;;;;;;;18.00;92.10;;;;;;5061193;28;19979;-77
2023/09/02 05:08:04;;;;;;;;;;;18.00;92.10;;;;;;5062821;28;19994;-77
2023/09/02 05:10:32;;;;;;;;;;;18.00;92.10;;;;;;5066557;28;19992;-77
2023/09/02 05:12:59;;;;;;;;;;;18.00;92.10;;;;;;5062134;28;19983;-76
2023/09/02 05:15:25;;;;;;;;;;;18.00;92.10;;;;;;5059868;28;19999;-77
2023/09/02 05:17:53;;;;;;;;;;;18.00;92.20;;;;;;5061327;28;19979;-77
2023/09/02 05:20:19;;;;;;;;;;;17.90;92.20;;;;;;5065646;28;20000;-78
2023/09/02 05:22:46;;;;;;;;;;;18.00;92.20;;;;;;5067005;28;19983;-78
2023/09/02 05:25:13;;;;;;;;;;;17.90;92.20;;;;;;5063486;28;19986;-77
2023/09/02 05:27:41;;;;;;;;;;;17.90;92.20;;;;;;5066094;28;19976;-77
2023/09/02 05:30:08;;;;;;;;;;;17.90;92.20;;;;;;5058910;28;19979;-78
2023/09/02 05:32:35;;;;;;;;;;;17.90;92.20;;;;;;5063742;28;19979;-77
2023/09/02 05:35:01;;;;;;;;;;;17.90;92.20;;;;;;5068608;28;19999;-78
2023/09/02 05:37:28;;;;;;;;;;;17.90;92.20;;;;;;5062089;28;19982;-78
2023/09/02 05:39:54;;;;;;;;;;;17.90;92.20;;;;;;5061946;28;20058;-79
2023/09/02 05:42:21;;;;;;;;;;;17.90;92.20;;;;;;5066457;28;19982;-78
2023/09/02 05:44:49;;;;;;;;;;;17.90;92.20;;;;;;5067241;28;19986;-77
2023/09/02 05:47:15;;;;;;;;;;;17.90;92.20;;;;;;5063012;28;20045;-78
2023/09/02 05:49:42;;;;;;;;;;;17.90;92.20;;;;;;5067482;28;19975;-78
2023/09/02 05:52:09;;;;;;;;;;;17.90;92.20;;;;;;5064547;28;19999;-78
2023/09/02 05:54:35;;;;;;;;;;;17.90;92.20;;;;;;5058559;28;19998;-78
2023/09/02 05:57:02;;;;;;;;;;;17.90;92.20;;;;;;5062870;28;19980;-77
2023/09/02 05:59:29;;;;;;;;;;;17.90;92.20;;;;;;5058011;28;19979;-78
2023/09/02 06:01:58;;;;;;;;;;;17.90;92.20;;;;;;5058316;28;20029;-79
2023/09/02 06:04:25;;;;;;;;;;;17.90;92.20;;;;;;5060989;28;19987;-78
2023/09/02 06:06:51;;;;;;;;;;;17.90;92.20;;;;;;5062637;28;19983;-78
2023/09/02 06:09:18;;;;;;;;;;;17.90;92.20;;;;;;5063104;28;19987;-78
2023/09/02 06:11:44;;;;;;;;;;;17.90;92.20;;;;;;5065194;28;20520;-78
2023/09/02 06:14:11;;;;;;;;;;;17.90;92.20;;;;;;5064955;28;19995;-78
2023/09/02 06:16:38;;;;;;;;;;;17.90;92.20;;;;;;5060409;28;20061;-78
2023/09/02 06:19:06;;;;;;;;;;;17.90;92.20;;;;;;5062060;28;19986;-79
2023/09/02 06:21:32;;;;;;;;;;;17.90;92.30;;;;;;5058576;28;20003;-78
2023/09/02 06:23:59;;;;;;;;;;;17.90;92.30;;;;;;5067032;28;19987;-78
2023/09/02 06:26:26;;;;;;;;;;;17.90;92.30;;;;;;5065330;28;20731;-77
2023/09/02 06:28:53;;;;;;;;;;;17.90;92.30;;;;;;5061563;28;20086;-78
2023/09/02 06:31:19;;;;;;;;;;;17.90;92.30;;;;;;5062494;28;19999;-78
2023/09/02 06:33:46;;;;;;;;;;;17.90;92.30;;;;;;5062755;28;19980;-77
2023/09/02 06:36:14;;;;;;;;;;;17.80;92.30;;;;;;5062526;28;19979;-78
2023/09/02 06:38:41;;;;;;;;;;;17.80;92.30;;;;;;5061006;28;20061;-78
2023/09/02 06:41:11;;;;;;;;;;;17.90;92.40;;;;;;5057161;28;20074;-77
2023/09/02 06:43:38;;;;;;;;;;;17.80;92.30;;;;;;5058473;28;20010;-78
2023/09/02 06:46:11;;;;;;;;;;;17.80;92.30;;;;;;5061722;28;20479;-78
2023/09/02 06:48:38;;;;;;;;;;;17.80;92.30;;;;;;5062794;28;20542;-77
2023/09/02 06:51:04;;;;;;;;;;;17.80;92.40;;;;;;5060537;28;19995;-77
2023/09/02 06:53:32;;;;;;;;;;;17.90;92.40;;;;;;5060972;28;19987;-78
2023/09/02 06:55:59;;;;;;;;;;;17.80;92.70;;;;;;5063373;28;19997;-78
2023/09/02 06:58:25;;;;;;;;;;;17.80;92.70;;;;;;5056421;28;19979;-77
2023/09/02 07:00:52;;;;;;;;;;;17.80;92.40;;;;;;5060929;28;20006;-78
2023/09/02 07:03:18;;;;;;;;;;;17.90;92.40;;;;;;5060377;28;19987;-77
2023/09/02 07:05:45;;;;;;;;;;;17.90;92.40;;;;;;5058262;28;19979;-78
2023/09/02 07:08:11;;;;;;;;;;;17.90;92.40;;;;;;5058845;28;19979;-78
2023/09/02 07:10:40;;;;;;;;;;;17.90;92.40;;;;;;5056953;28;19991;-78
2023/09/02 07:13:06;;;;;;;;;;;17.80;92.40;;;;;;5060411;28;20636;-77
2023/09/02 07:15:34;;;;;;;;;;;17.90;92.40;;;;;;5055057;28;20025;-77
2023/09/02 07:18:01;;;;;;;;;;;17.90;92.50;;;;;;5064683;28;19987;-77
2023/09/02 07:20:28;;;;;;;;;;;17.90;92.40;;;;;;5058486;28;19999;-78
2023/09/02 07:22:54;;;;;;;;;;;17.90;92.40;;;;;;5060694;28;20006;-78
2023/09/02 07:25:21;;;;;;;;;;;17.90;92.40;;;;;;5058949;28;19984;-78
2023/09/02 07:27:49;;;;;;;;;;;17.90;92.40;;;;;;5063792;28;19982;-78
2023/09/02 07:30:16;;;;;;;;;;;17.90;92.40;;;;;;5056978;28;19999;-77
2023/09/02 07:32:42;;;;;;;;;;;18.00;92.40;;;;;;5062820;28;20033;-77
2023/09/02 07:35:09;;;;;;;;;;;18.00;92.50;;;;;;5064658;28;20002;-77
2023/09/02 07:37:36;;;;;;;;;;;18.00;92.60;;;;;;5057857;28;19979;-77
2023/09/02 07:40:02;;;;;;;;;;;18.00;92.50;;;;;;5064653;28;19979;-77
2023/09/02 07:42:29;;;;;;;;;;;18.00;92.50;;;;;;5059815;28;19979;-78
2023/09/02 07:44:56;;;;;;;;;;;18.00;92.50;;;;;;5063392;28;19978;-77
2023/09/02 07:47:23;;;;;;;;;;;18.10;92.60;;;;;;5057886;28;20073;-77
2023/09/02 07:49:50;;;;;;;;;;;18.10;92.60;;;;;;5061250;28;20344;-78
2023/09/02 07:52:16;;;;;;;;;;;18.10;92.50;;;;;;5057087;28;20001;-77
2023/09/02 07:54:43;;;;;;;;;;;18.10;92.40;;;;;;5059551;28;19999;-78
2023/09/02 07:57:09;;;;;;;;;;;18.20;92.50;;;;;;5061386;28;20478;-78
2023/09/02 07:59:36;;;;;;;;;;;18.20;92.50;;;;;;5058775;28;19991;-77
2023/09/02 08:02:04;;;;;;;;;;;18.20;92.60;;;;;;5065045;28;20007;-77
2023/09/02 08:04:31;;;;;;;;;;;18.20;92.50;;;;;;5060988;28;19987;-78
2023/09/02 08:06:57;;;;;;;;;;;18.30;92.50;;;;;;5060149;28;19983;-78
2023/09/02 08:09:24;;;;;;;;;;;18.30;92.60;;;;;;5064137;28;19983;-77
2023/09/02 08:11:50;;;;;;;;;;;18.30;92.60;;;;;;5063692;28;20000;-77
2023/09/02 08:14:17;;;;;;;;;;;18.30;92.60;;;;;;5061855;28;20481;-79
2023/09/02 08:16:43;;;;;;;;;;;18.30;92.50;;;;;;5064899;28;19988;-78
2023/09/02 08:19:11;;;;;;;;;;;18.40;92.50;;;;;;5064716;28;19983;-78
2023/09/02 08:21:38;;;;;;;;;;;18.40;92.50;;;;;;5055333;28;20007;-77
2023/09/02 08:24:04;;;;;;;;;;;18.40;92.60;;;;;;5060690;28;19980;-78
2023/09/02 08:26:31;;;;;;;;;;;18.50;92.60;;;;;;5052314;28;19980;-78
2023/09/02 08:28:57;;;;;;;;;;;18.50;92.50;;;;;;5063340;28;19976;-77
2023/09/02 08:31:24;;;;;;;;;;;18.50;92.60;;;;;;5062371;28;19999;-77
2023/09/02 08:33:50;;;;;;;;;;;18.60;92.60;;;;;;5055959;28;20058;-78
2023/09/02 08:36:18;;;;;;;;;;;18.60;92.60;;;;;;5061105;28;19999;-77
2023/09/02 08:38:45;;;;;;;;;;;18.60;92.60;;;;;;5056239;28;21090;-77
2023/09/02 08:41:14;;;;;;;;;;;18.70;92.50;;;;;;5062505;28;19995;-78
2023/09/02 08:43:41;;;;;;;;;;;18.70;92.40;;;;;;5053206;28;20066;-77
2023/09/02 08:46:08;;;;;;;;;;;18.70;92.40;;;;;;5056286;28;20002;-77
2023/09/02 08:48:37;;;;;;;;;;;18.70;92.30;;;;;;5059634;28;19983;-77
2023/09/02 08:51:03;;;;;;;;;;;18.80;92.20;;;;;;5060255;28;19999;-77
2023/09/02 08:53:34;;;;;;;;;;;18.90;92.10;;;;;;5060961;28;19987;-77
2023/09/02 08:56:01;;;;;;;;;;;19.00;92.10;;;;;;5058193;28;19991;-77
2023/09/02 08:58:30;;;;;;;;;;;19.00;92.00;;;;;;5057866;28;20656;-76
2023/09/02 09:00:57;;;;;;;;;;;19.10;92.00;;;;;;5061181;28;19995;-77
2023/09/02 09:03:25;;;;;;;;;;;19.10;91.90;;;;;;5055568;28;19979;-76
2023/09/02 09:05:52;;;;;;;;;;;19.20;91.80;;;;;;5057330;28;19982;-75
2023/09/02 09:08:18;;;;;;;;;;;19.20;91.60;;;;;;5053182;28;19987;-77
2023/09/02 09:10:46;;;;;;;;;;;19.30;91.60;;;;;;5060853;28;19998;-77
2023/09/02 09:13:15;;;;;;;;;;;19.40;91.60;;;;;;5058868;28;19983;-77
2023/09/02 09:15:42;;;;;;;;;;;19.50;91.50;;;;;;5050597;28;20500;-77
2023/09/02 09:18:11;;;;;;;;;;;19.50;91.30;;;;;;5060917;28;19980;-77
2023/09/02 09:20:38;;;;;;;;;;;19.60;91.20;;;;;;5057470;28;20564;-78
2023/09/02 09:23:06;;;;;;;;;;;19.60;91.10;;;;;;5064561;28;19979;-77
2023/09/02 09:25:32;;;;;;;;;;;19.70;91.10;;;;;;5057746;28;20458;-76
2023/09/02 09:28:08;;;;;;;;;;;19.80;91.00;;;;;;5062023;28;20003;-77
2023/09/02 09:30:34;;;;;;;;;;;19.80;90.90;;;;;;5060873;28;19999;-77
2023/09/02 09:33:04;;;;;;;;;;;19.90;91.10;;;;;;5059590;28;20062;-77
2023/09/02 09:35:31;;;;;;;;;;;20.00;90.70;;;;;;5062225;28;20359;-77
2023/09/02 09:37:58;;;;;;;;;;;20.10;90.70;;;;;;5066040;28;19983;-76
2023/09/02 09:40:29;;;;;;;;;;;20.10;90.60;;;;;;5062120;28;19999;-77
2023/09/02 09:42:56;;;;;;;;;;;20.20;90.80;;;;;;5059692;28;20018;-76
2023/09/02 09:45:23;;;;;;;;;;;20.20;90.30;;;;;;5060843;28;19979;-76
2023/09/02 09:47:50;;;;;;;;;;;20.30;90.20;;;;;;5056064;28;19999;-76
2023/09/02 09:50:17;;;;;;;;;;;20.40;90.10;;;;;;5058587;28;20384;-76
2023/09/02 09:52:57;;;;;;;;;;;20.40;90.10;;;;;;5058549;28;19983;-77
2023/09/02 10:47:19;;;;;;;;;;;21.90;85.80;;;;;;5054718;28;19994;-77
2023/09/02 10:49:46;;;;;;;;;;;22.00;85.40;;;;;;5064151;28;19988;-77
2023/09/02 10:52:14;;;;;;;;;;;22.00;85.20;;;;;;5057419;28;19999;-76
2023/09/02 10:54:59;;;;;;;;;;;22.10;85.00;;;;;;5056729;28;19980;-77
2023/09/02 10:57:26;;;;;;;;;;;22.20;84.90;;;;;;5057114;28;19991;-77
2023/09/02 11:00:11;;;;;;;;;;;22.20;84.60;;;;;;5052010;28;19987;-76
2023/09/02 11:02:40;;;;;;;;;;;22.30;84.40;;;;;;5059570;28;19995;-77
2023/09/02 11:05:07;;;;;;;;;;;22.40;84.20;;;;;;5056862;28;19990;-77
2023/09/02 11:07:34;;;;;;;;;;;22.40;83.30;;;;;;5054725;28;19979;-77
2023/09/02 11:10:01;;;;;;;;;;;22.50;83.50;;;;;;5063564;28;19976;-77
2023/09/02 11:12:28;;;;;;;;;;;22.60;82.80;;;;;;5064626;28;19986;-77
2023/09/02 11:15:14;;;;;;;;;;;22.70;83.10;;;;;;5062199;28;19983;-77
2023/09/02 11:17:42;;;;;;;;;;;22.70;82.90;;;;;;5063669;28;20669;-77
2023/09/02 11:20:09;;;;;;;;;;;22.80;82.50;;;;;;5058942;28;19987;-77
2023/09/02 11:22:53;;;;;;;;;;;22.90;82.30;;;;;;5059485;28;19991;-76
2023/09/02 11:25:26;;;;;;;;;;;23.00;82.10;;;;;;5058923;28;19998;-77
2023/09/02 11:27:55;;;;;;;;;;;23.00;81.80;;;;;;5062912;28;19976;-77
2023/09/02 11:30:22;;;;;;;;;;;23.10;81.60;;;;;;5054573;28;20075;-75
2023/09/02 11:32:50;;;;;;;;;;;23.20;81.50;;;;;;5060579;28;20446;-77
2023/09/02 11:35:21;;;;;;;;;;;23.20;81.20;;;;;;5064229;28;19987;-77
2023/09/02 11:37:48;;;;;;;;;;;23.40;81.20;;;;;;5063529;28;19991;-77
2023/09/02 11:40:15;;;;;;;;;;;23.40;80.90;;;;;;5063720;28;19992;-77
2023/09/02 11:42:48;;;;;;;;;;;23.50;80.70;;;;;;5055673;28;19984;-76
2023/09/02 11:45:14;;;;;;;;;;;23.50;80.30;;;;;;5058352;28;19986;-77
2023/09/02 11:47:41;;;;;;;;;;;23.60;79.70;;;;;;5047424;28;19991;-75
2023/09/02 11:50:14;;;;;;;;;;;23.70;79.70;;;;;;5048034;28;19983;-79
2023/09/02 11:52:41;;;;;;;;;;;23.70;79.70;;;;;;5047332;28;20252;-75
2023/09/02 11:55:08;;;;;;;;;;;23.80;79.70;;;;;;5047264;28;20671;-77
2023/09/02 11:57:35;;;;;;;;;;;23.90;78.60;;;;;;5046825;28;19998;-76
2023/09/02 12:00:01;;;;;;;;;;;23.90;78.80;;;;;;5046991;28;20501;-75
2023/09/02 12:02:28;;;;;;;;;;;23.90;78.50;;;;;;5044124;28;19995;-76
2023/09/02 12:04:55;;;;;;;;;;;24.10;78.40;;;;;;5044970;28;19983;-77
2023/09/02 12:07:23;;;;;;;;;;;24.10;77.70;;;;;;5047171;28;19980;-77
2023/09/02 12:09:51;;;;;;;;;;;24.20;77.70;;;;;;5046687;28;19975;-77
2023/09/02 12:12:17;;;;;;;;;;;24.20;77.20;;;;;;5047584;28;19975;-76
2023/09/02 12:14:44;;;;;;;;;;;24.30;77.50;;;;;;5047193;28;19979;-76
2023/09/02 12:17:11;;;;;;;;;;;24.30;77.50;;;;;;5046145;28;20006;-77
2023/09/02 12:19:38;;;;;;;;;;;24.40;77.40;;;;;;5047130;28;20893;-77
2023/09/02 12:22:04;;;;;;;;;;;24.50;76.90;;;;;;5045566;28;19995;-76
2023/09/02 12:24:32;;;;;;;;;;;24.60;77.10;;;;;;5046805;28;19976;-76
2023/09/02 12:27:00;;;;;;;;;;;24.60;76.70;;;;;;5046420;28;20030;-77
2023/09/02 12:29:26;;;;;;;;;;;24.70;76.20;;;;;;5047127;28;20421;-76
2023/09/02 12:31:53;;;;;;;;;;;24.70;76.20;;;;;;5046048;28;21057;-77
2023/09/02 12:34:20;;;;;;;;;;;24.70;75.80;;;;;;5047285;28;19981;-76
2023/09/02 12:36:46;;;;;;;;;;;24.80;74.60;;;;;;5046465;28;19995;-76
2023/09/02 12:39:21;;;;;;;;;;;24.90;74.40;;;;;;5046236;28;19976;-77
2023/09/02 12:41:49;;;;;;;;;;;24.90;74.90;;;;;;5046884;28;19990;-78
2023/09/02 12:44:18;;;;;;;;;;;25.00;74.90;;;;;;5046731;28;19976;-77
2023/09/02 12:46:45;;;;;;;;;;;25.00;75.00;;;;;;5051405;28;20002;-77
2023/09/02 12:49:12;;;;;;;;;;;25.10;75.10;;;;;;5061861;28;19979;-77
2023/09/02 12:51:39;;;;;;;;;;;25.10;74.30;;;;;;5062226;28;20026;-77
2023/09/02 12:54:08;;;;;;;;;;;25.20;74.60;;;;;;5048967;28;19979;-78
2023/09/02 12:56:35;;;;;;;;;;;25.30;74.60;;;;;;5050168;28;20484;-77
2023/09/02 12:59:03;;;;;;;;;;;25.40;73.70;;;;;;5055578;28;19987;-77
2023/09/02 13:01:29;;;;;;;;;;;25.40;74.10;;;;;;5061342;28;20122;-77
2023/09/02 13:03:58;;;;;;;;;;;25.40;74.20;;;;;;5056734;28;19986;-77
2023/09/02 13:06:25;;;;;;;;;;;25.50;73.50;;;;;;5058182;28;19980;-78
2023/09/02 13:08:52;;;;;;;;;;;25.50;73.60;;;;;;5066675;28;20015;-77
2023/09/02 13:11:19;;;;;;;;;;;25.60;73.50;;;;;;5065304;28;20002;-77
2023/09/02 13:13:46;;;;;;;;;;;25.60;73.40;;;;;;5064803;28;20022;-77
2023/09/02 13:16:13;;;;;;;;;;;25.70;73.10;;;;;;5065830;28;20006;-77
2023/09/02 13:18:40;;;;;;;;;;;25.70;72.90;;;;;;5058137;28;19979;-77
2023/09/02 13:21:07;;;;;;;;;;;25.80;72.70;;;;;;5060084;28;20007;-77
2023/09/02 13:23:33;;;;;;;;;;;25.90;72.50;;;;;;5056219;28;19998;-77
2023/09/02 13:26:00;;;;;;;;;;;25.90;72.50;;;;;;5065909;28;20469;-77
2023/09/02 13:28:28;;;;;;;;;;;26.00;71.60;;;;;;5060651;28;19983;-77
2023/09/02 13:30:54;;;;;;;;;;;26.00;71.90;;;;;;5064555;28;20013;-77
2023/09/02 13:33:22;;;;;;;;;;;26.10;72.00;;;;;;5067953;28;19982;-77
2023/09/02 13:35:49;;;;;;;;;;;26.10;71.90;;;;;;5062332;28;19975;-77
2023/09/02 13:38:19;;;;;;;;;;;26.20;71.00;;;;;;5065841;28;20442;-77
2023/09/02 13:40:45;;;;;;;;;;;26.20;71.00;;;;;;5062053;28;19991;-77
2023/09/02 13:43:17;;;;;;;;;;;26.20;70.90;;;;;;5063584;28;19975;-78
2023/09/02 13:45:44;;;;;;;;;;;26.30;70.70;;;;;;5057475;28;20470;-76
2023/09/02 13:48:12;;;;;;;;;;;26.30;71.00;;;;;;5065033;28;19975;-78
2023/09/02 13:50:42;;;;;;;;;;;26.40;71.20;;;;;;5063793;28;19995;-77
2023/09/02 13:53:09;;;;;;;;;;;26.40;70.90;;;;;;5064226;28;19976;-78
2023/09/02 13:55:36;;;;;;;;;;;26.50;70.70;;;;;;5062002;28;19975;-77
2023/09/02 13:58:03;;;;;;;;;;;26.50;70.40;;;;;;5065316;28;20017;-77
2023/09/02 14:00:30;;;;;;;;;;;26.60;70.50;;;;;;5056643;28;20030;-77
2023/09/02 14:02:57;;;;;;;;;;;26.70;70.20;;;;;;5061590;28;19998;-77
2023/09/02 14:05:24;;;;;;;;;;;26.70;69.60;;;;;;5063518;28;20026;-77
2023/09/02 14:07:53;;;;;;;;;;;26.80;69.30;;;;;;5058370;28;19976;-77
2023/09/02 14:10:20;;;;;;;;;;;26.80;69.30;;;;;;5062050;28;19991;-78
2023/09/02 14:12:47;;;;;;;;;;;26.80;69.10;;;;;;5053982;28;19979;-77
2023/09/02 14:15:13;;;;;;;;;;;26.90;68.90;;;;;;5064586;28;19983;-78
2023/09/02 14:17:40;;;;;;;;;;;26.90;68.70;;;;;;5063349;28;19995;-78
2023/09/02 14:20:07;;;;;;;;;;;27.00;68.30;;;;;;5055993;28;19998;-78
2023/09/02 14:22:33;;;;;;;;;;;27.00;68.30;;;;;;5064708;28;19994;-77
2023/09/02 14:25:01;;;;;;;;;;;27.10;68.00;;;;;;5065528;28;20789;-78
2023/09/02 14:27:28;;;;;;;;;;;27.10;67.70;;;;;;5064176;28;19976;-78
2023/09/02 14:29:54;;;;;;;;;;;27.20;67.60;;;;;;5063226;28;19983;-77
2023/09/02 14:32:21;;;;;;;;;;;27.20;67.50;;;;;;5058047;28;19999;-78
2023/09/02 14:34:47;;;;;;;;;;;27.30;67.40;;;;;;5064195;28;19986;-77
2023/09/02 14:37:14;;;;;;;;;;;27.30;66.30;;;;;;5062050;28;19991;-77
2023/09/02 14:39:41;;;;;;;;;;;27.40;66.60;;;;;;5059826;28;19983;-77
2023/09/02 14:42:08;;;;;;;;;;;27.40;66.20;;;;;;5063200;28;20034;-78
2023/09/02 14:44:35;;;;;;;;;;;27.40;65.90;;;;;;5065829;28;19984;-78
2023/09/02 14:47:02;;;;;;;;;;;27.50;66.50;;;;;;5055020;28;20823;-78
2023/09/02 14:49:29;;;;;;;;;;;27.50;66.60;;;;;;5062044;28;19975;-76
2023/09/02 14:51:56;;;;;;;;;;;27.50;65.90;;;;;;5059254;28;20026;-79
2023/09/02 14:54:22;;;;;;;;;;;27.50;65.10;;;;;;5057732;28;20462;-78
2023/09/02 14:56:50;;;;;;;;;;;27.50;65.40;;;;;;5057610;28;19991;-77
2023/09/02 14:59:20;;;;;;;;;;;27.50;65.20;;;;;;5059181;28;19975;-78
2023/09/02 15:01:47;;;;;;;;;;;27.50;65.00;;;;;;5052074;28;20116;-77
2023/09/02 15:04:15;;;;;;;;;;;27.50;64.80;;;;;;5056255;28;19986;-78
2023/09/02 15:06:42;;;;;;;;;;;27.50;64.80;;;;;;5051646;28;19980;-78
2023/09/02 15:09:09;;;;;;;;;;;27.50;65.00;;;;;;5059901;28;20064;-78
2023/09/02 15:11:36;;;;;;;;;;;27.50;64.70;;;;;;5055105;28;20423;-78